CheckWX is a tool to help pilots better visualize weather data.  It is not intended as a substitute for an official pre-flight weather briefing.

18:25:15 UTC

KHOT TAF
Memorial Field Airport
Hot Springs, Arkansas, USA
KHOT 161720Z 1618/1718 14005KT P6SM OVC015 FM170500 VRB03KT 6SM BR OVC015 FM170800 12005KT 6SM BR OVC007

Feb-16@
18:00 UTC

Feb-16 @ 18:00 UTC

Feb-17@
05:00 UTC

Feb-17 @ 05:00 UTC

KHOT 161720Z 1618/1718 14005KT P6SM OVC015
Wind
  • 140° at 5 KTS
Cloud Levels
  • Overcast at 1,500' AGL

Feb-17@
05:00 UTC

Feb-17 @ 05:00 UTC

Feb-17@
08:00 UTC

Feb-17 @ 08:00 UTC

FM170500 VRB03KT 6SM BR OVC015

From

From Standard forecast or significant change

Wind
  • Variable at 3 KTS
Conditions
Mist
Cloud Levels
  • Overcast at 1,500' AGL

Feb-17@
08:00 UTC

Feb-17 @ 08:00 UTC

Feb-17@
18:00 UTC

Feb-17 @ 18:00 UTC

FM170800 12005KT 6SM BR OVC007

From

From Standard forecast or significant change

Wind
  • 120° at 5 KTS
Conditions
Mist
Cloud Levels
  • Overcast at 700' AGL